Time;durP1;ratioP1;P1;durP2;ratioP2;P2;SDS_P1;SDS_P2;PMS_P1;PMS_P2;Temp;Humidity;BMP_temperature;BMP_pressure;BME280_temperature;BME280_humidity;BME280_pressure;Samples;Min_cycle;Max_cycle;Signal;HPM_P1;HPM_P2
2022/10/11 00:02:10;;;;;;;6.90;5.10;;;;;;;;;;104815;1293;37858;-36
2022/10/11 00:04:42;;;;;;;6.50;4.80;;;;;;;;;;104810;1295;36908;-37
2022/10/11 00:07:13;;;;;;;8.10;5.20;;;;;;;;;;104756;1293;36196;-35
2022/10/11 00:09:46;;;;;;;7.80;5.40;;;;;;;;;;104765;1297;36208;-36
2022/10/11 00:12:18;;;;;;;8.00;5.00;;;;;;;;;;104796;1286;37735;-37
2022/10/11 00:14:50;;;;;;;7.10;5.30;;;;;;;;;;104793;1292;36075;-36
2022/10/11 00:17:22;;;;;;;7.50;5.10;;;;;;;;;;104802;1297;36113;-37
2022/10/11 00:19:54;;;;;;;6.60;4.50;;;;;;;;;;104732;1294;35135;-35
2022/10/11 00:22:26;;;;;;;7.00;4.90;;;;;;;;;;104741;1293;37748;-36
2022/10/11 00:24:58;;;;;;;8.10;5.50;;;;;;;;;;104740;1295;37739;-37
2022/10/11 00:27:30;;;;;;;7.10;4.70;;;;;;;;;;104767;1292;36362;-36
2022/10/11 00:30:02;;;;;;;7.40;4.90;;;;;;;;;;104761;1298;35958;-37
2022/10/11 00:32:36;;;;;;;7.80;5.50;;;;;;;;;;104799;1286;36037;-36
2022/10/11 00:35:10;;;;;;;6.90;5.10;;;;;;;;;;104799;1293;37908;-36
2022/10/11 00:37:42;;;;;;;7.30;5.20;;;;;;;;;;104803;1298;37570;-38
2022/10/11 00:40:19;;;;;;;6.80;4.80;;;;;;;;;;104726;1298;38589;-37
2022/10/11 00:42:50;;;;;;;6.50;4.60;;;;;;;;;;104773;1292;38199;-38
2022/10/11 00:46:00;;;;;;;6.80;5.10;;;;;;;;;;104761;1291;36205;-37
2022/10/11 00:48:39;;;;;;;6.90;4.60;;;;;;;;;;104861;1297;37825;-36
2022/10/11 00:51:19;;;;;;;7.20;5.00;;;;;;;;;;104876;1293;37835;-37
2022/10/11 00:53:52;;;;;;;6.90;4.70;;;;;;;;;;104821;1297;36122;-36
2022/10/11 00:56:28;;;;;;;7.00;4.80;;;;;;;;;;104828;1289;37812;-36
2022/10/11 00:59:02;;;;;;;7.00;4.80;;;;;;;;;;104816;1297;36120;-36
2022/10/11 01:01:34;;;;;;;8.20;4.90;;;;;;;;;;104739;1297;40301;-36
2022/10/11 01:04:06;;;;;;;6.50;4.50;;;;;;;;;;104769;1295;37886;-36
2022/10/11 01:06:38;;;;;;;6.70;4.80;;;;;;;;;;104774;1297;37778;-36
2022/10/11 01:09:11;;;;;;;6.80;4.80;;;;;;;;;;104776;1297;37602;-35
2022/10/11 01:11:44;;;;;;;7.10;4.80;;;;;;;;;;104763;1298;37932;-37
2022/10/11 01:14:41;;;;;;;7.00;4.70;;;;;;;;;;104792;1296;37764;-36
2022/10/11 01:17:25;;;;;;;6.70;4.70;;;;;;;;;;104796;1298;35055;-36
2022/10/11 01:20:26;;;;;;;6.60;4.60;;;;;;;;;;104753;1298;37730;-37
2022/10/11 01:23:53;;;;;;;6.80;4.70;;;;;;;;;;104764;1297;36237;-37
2022/10/11 01:27:25;;;;;;;6.80;4.70;;;;;;;;;;104761;1298;35571;-37
2022/10/11 01:30:11;;;;;;;7.00;4.80;;;;;;;;;;104705;1298;36200;-37
2022/10/11 01:32:56;;;;;;;6.30;4.70;;;;;;;;;;104793;1296;36061;-37
2022/10/11 01:35:34;;;;;;;6.30;4.40;;;;;;;;;;104802;1297;38164;-36
2022/10/11 01:38:16;;;;;;;7.00;5.00;;;;;;;;;;104798;1292;37463;-36
2022/10/11 01:40:56;;;;;;;7.70;5.10;;;;;;;;;;104781;1297;36006;-37
2022/10/11 01:43:29;;;;;;;7.10;4.60;;;;;;;;;;104748;1291;35500;-36
2022/10/11 01:46:02;;;;;;;6.50;4.60;;;;;;;;;;104751;1292;37714;-37
2022/10/11 01:48:33;;;;;;;6.80;4.70;;;;;;;;;;104745;1301;37857;-36
2022/10/11 01:51:06;;;;;;;7.00;4.50;;;;;;;;;;104730;1297;36123;-37
2022/10/11 01:53:59;;;;;;;6.60;4.50;;;;;;;;;;104745;1294;36112;-36
2022/10/11 01:56:52;;;;;;;6.40;4.50;;;;;;;;;;104739;1299;38015;-36
2022/10/11 01:59:39;;;;;;;7.20;4.50;;;;;;;;;;104773;1295;37807;-36
2022/10/11 02:02:26;;;;;;;6.30;4.50;;;;;;;;;;104721;1298;37871;-37
2022/10/11 02:05:08;;;;;;;6.60;4.20;;;;;;;;;;104778;1295;37713;-37
2022/10/11 02:07:48;;;;;;;7.50;4.80;;;;;;;;;;104801;1298;35071;-38
2022/10/11 02:10:28;;;;;;;7.40;4.70;;;;;;;;;;104777;1297;36030;-37
2022/10/11 02:13:09;;;;;;;6.90;4.40;;;;;;;;;;104606;1295;36968;-37
2022/10/11 02:15:43;;;;;;;6.00;4.40;;;;;;;;;;104743;1297;37819;-37
2022/10/11 02:18:19;;;;;;;6.70;4.40;;;;;;;;;;104788;1297;37854;-37
2022/10/11 02:20:53;;;;;;;7.20;4.70;;;;;;;;;;104778;1294;37460;-37
2022/10/11 02:23:31;;;;;;;6.30;4.60;;;;;;;;;;104793;1291;37995;-37
2022/10/11 02:26:07;;;;;;;6.90;4.50;;;;;;;;;;104716;1299;37761;-37
2022/10/11 02:28:41;;;;;;;6.50;4.50;;;;;;;;;;104810;1293;35436;-37
2022/10/11 02:31:15;;;;;;;6.40;4.60;;;;;;;;;;104754;1291;37809;-37
2022/10/11 02:33:52;;;;;;;6.80;4.50;;;;;;;;;;104768;1291;36103;-37
2022/10/11 02:36:32;;;;;;;8.10;4.60;;;;;;;;;;104782;1297;37797;-37
2022/10/11 02:39:11;;;;;;;7.10;4.60;;;;;;;;;;104773;1298;35327;-37
2022/10/11 02:41:44;;;;;;;6.60;4.90;;;;;;;;;;104717;1298;37779;-37
2022/10/11 02:44:23;;;;;;;7.20;5.10;;;;;;;;;;104821;1292;35025;-36
2022/10/11 02:46:56;;;;;;;6.90;4.80;;;;;;;;;;104828;1299;37695;-36
2022/10/11 02:49:30;;;;;;;6.60;4.10;;;;;;;;;;104794;1291;37903;-36
2022/10/11 02:52:05;;;;;;;7.10;4.30;;;;;;;;;;104746;1298;36230;-38
2022/10/11 02:54:37;;;;;;;6.30;4.30;;;;;;;;;;104766;1297;37979;-38
2022/10/11 02:57:09;;;;;;;6.60;4.20;;;;;;;;;;104760;1297;37716;-37
2022/10/11 02:59:40;;;;;;;6.90;4.70;;;;;;;;;;104746;1298;35443;-36
2022/10/11 03:02:13;;;;;;;7.20;5.00;;;;;;;;;;104725;1297;38205;-36
2022/10/11 03:04:47;;;;;;;6.70;4.80;;;;;;;;;;104801;1291;37809;-37
2022/10/11 03:07:19;;;;;;;7.00;4.70;;;;;;;;;;104825;1298;37694;-37
2022/10/11 03:09:50;;;;;;;6.00;4.50;;;;;;;;;;104790;1298;37739;-36
2022/10/11 03:12:22;;;;;;;6.30;4.30;;;;;;;;;;104724;1291;36158;-36
2022/10/11 03:14:54;;;;;;;6.00;4.40;;;;;;;;;;104747;1293;38017;-36
2022/10/11 03:17:27;;;;;;;6.70;4.30;;;;;;;;;;104761;1295;35401;-36
2022/10/11 03:19:58;;;;;;;7.40;4.80;;;;;;;;;;104756;1297;36202;-36
2022/10/11 03:22:30;;;;;;;6.40;4.50;;;;;;;;;;104739;1292;37796;-37
2022/10/11 03:25:02;;;;;;;6.70;4.80;;;;;;;;;;104783;1299;38311;-38
2022/10/11 03:27:35;;;;;;;6.60;4.70;;;;;;;;;;104819;1293;37962;-38
2022/10/11 03:30:10;;;;;;;6.00;4.20;;;;;;;;;;104808;1298;35281;-37
2022/10/11 03:32:43;;;;;;;6.60;4.50;;;;;;;;;;104765;1298;36109;-38
2022/10/11 03:35:15;;;;;;;6.80;5.00;;;;;;;;;;104785;1292;36151;-38
2022/10/11 03:37:47;;;;;;;6.90;4.80;;;;;;;;;;104776;1298;35746;-38
2022/10/11 03:40:19;;;;;;;6.50;4.50;;;;;;;;;;104778;1292;36362;-38
2022/10/11 03:42:53;;;;;;;6.10;4.30;;;;;;;;;;104748;1295;37858;-37
2022/10/11 03:45:25;;;;;;;7.30;4.80;;;;;;;;;;104825;1292;36619;-37
2022/10/11 03:47:57;;;;;;;6.20;4.30;;;;;;;;;;104829;1296;34949;-37
2022/10/11 03:50:30;;;;;;;6.60;4.30;;;;;;;;;;104783;1293;37716;-37
2022/10/11 03:53:02;;;;;;;6.30;4.30;;;;;;;;;;104756;1289;36126;-36
2022/10/11 03:55:34;;;;;;;7.30;4.70;;;;;;;;;;104809;1284;36619;-36
2022/10/11 03:58:06;;;;;;;7.10;4.60;;;;;;;;;;104756;1291;37748;-36
2022/10/11 04:00:38;;;;;;;7.10;4.80;;;;;;;;;;104798;1294;37452;-36
2022/10/11 04:03:10;;;;;;;6.30;4.40;;;;;;;;;;104755;1296;36074;-38
2022/10/11 04:05:42;;;;;;;6.70;4.70;;;;;;;;;;104810;1293;37740;-37
2022/10/11 04:08:14;;;;;;;6.90;4.70;;;;;;;;;;104829;1298;36048;-37
2022/10/11 04:10:47;;;;;;;6.00;4.20;;;;;;;;;;104810;1298;37864;-37
2022/10/11 04:13:20;;;;;;;5.90;4.60;;;;;;;;;;104759;1298;36215;-37
2022/10/11 04:15:51;;;;;;;6.40;4.80;;;;;;;;;;104787;1298;37876;-37
2022/10/11 04:18:24;;;;;;;7.60;4.70;;;;;;;;;;104827;1297;36049;-37
2022/10/11 04:20:58;;;;;;;7.20;4.30;;;;;;;;;;104797;1298;37797;-37
2022/10/11 04:23:31;;;;;;;7.00;4.50;;;;;;;;;;104790;1298;36371;-38
2022/10/11 04:26:06;;;;;;;7.40;4.60;;;;;;;;;;104900;1298;36199;-37
2022/10/11 04:28:38;;;;;;;6.90;4.10;;;;;;;;;;104904;1292;36157;-37
2022/10/11 04:31:09;;;;;;;7.30;5.00;;;;;;;;;;104817;1291;37732;-37
2022/10/11 04:33:41;;;;;;;7.40;4.60;;;;;;;;;;104735;1298;37900;-38
2022/10/11 04:36:13;;;;;;;7.00;4.80;;;;;;;;;;104760;1294;37795;-38
2022/10/11 04:38:45;;;;;;;6.80;5.00;;;;;;;;;;104765;1285;35294;-37
2022/10/11 04:41:17;;;;;;;7.10;4.90;;;;;;;;;;104767;1291;35980;-38
2022/10/11 04:43:49;;;;;;;6.50;4.70;;;;;;;;;;104752;1288;36123;-38
2022/10/11 04:46:21;;;;;;;6.80;5.10;;;;;;;;;;104817;1292;36168;-37
2022/10/11 04:48:53;;;;;;;7.50;5.00;;;;;;;;;;104814;1298;35926;-36
2022/10/11 04:51:26;;;;;;;7.10;5.10;;;;;;;;;;104802;1298;37707;-37
2022/10/11 04:53:58;;;;;;;6.80;4.60;;;;;;;;;;104766;1293;38503;-38
2022/10/11 04:56:30;;;;;;;7.10;5.10;;;;;;;;;;104776;1298;37996;-38
2022/10/11 04:59:02;;;;;;;7.20;5.30;;;;;;;;;;104816;1298;37970;-37
2022/10/11 05:01:34;;;;;;;6.60;5.20;;;;;;;;;;104804;1284;37933;-38
2022/10/11 05:04:07;;;;;;;8.10;5.50;;;;;;;;;;104806;1294;37131;-37
2022/10/11 05:06:39;;;;;;;7.10;5.20;;;;;;;;;;104838;1291;37219;-37
2022/10/11 05:09:12;;;;;;;8.30;5.30;;;;;;;;;;104809;1298;36152;-38
2022/10/11 05:11:43;;;;;;;6.90;4.80;;;;;;;;;;104796;1291;35216;-38
2022/10/11 05:14:15;;;;;;;7.90;5.60;;;;;;;;;;104797;1285;37749;-38
2022/10/11 05:16:47;;;;;;;8.20;5.10;;;;;;;;;;104727;1289;37758;-38
2022/10/11 05:19:19;;;;;;;7.70;5.40;;;;;;;;;;104774;1292;37759;-36
2022/10/11 05:21:51;;;;;;;7.70;5.50;;;;;;;;;;104753;1294;35644;-36
2022/10/11 05:24:22;;;;;;;7.10;5.30;;;;;;;;;;104762;1292;37736;-37
2022/10/11 05:26:54;;;;;;;8.60;5.60;;;;;;;;;;104779;1285;38021;-38
2022/10/11 05:29:30;;;;;;;7.40;5.30;;;;;;;;;;104819;1288;38022;-37
2022/10/11 05:32:03;;;;;;;8.40;5.30;;;;;;;;;;104838;1292;37887;-38
2022/10/11 05:34:35;;;;;;;7.70;5.40;;;;;;;;;;104827;1292;37888;-38
2022/10/11 05:37:06;;;;;;;7.70;5.40;;;;;;;;;;104782;1291;37947;-37
2022/10/11 05:39:41;;;;;;;9.30;5.50;;;;;;;;;;104811;1292;35337;-37
2022/10/11 05:42:13;;;;;;;7.50;5.40;;;;;;;;;;104789;1295;34951;-37
2022/10/11 05:44:45;;;;;;;9.00;5.60;;;;;;;;;;104772;1295;35462;-37
2022/10/11 05:47:18;;;;;;;6.80;5.20;;;;;;;;;;104775;1291;36106;-38
2022/10/11 05:49:51;;;;;;;7.40;5.10;;;;;;;;;;104831;1292;35149;-38
2022/10/11 05:52:23;;;;;;;8.60;5.40;;;;;;;;;;104828;1291;38032;-38
2022/10/11 05:54:55;;;;;;;8.70;5.40;;;;;;;;;;104828;1291;37221;-37
2022/10/11 05:57:27;;;;;;;11.70;6.70;;;;;;;;;;104737;1292;37719;-37
2022/10/11 05:59:59;;;;;;;11.40;6.60;;;;;;;;;;104768;1292;37899;-38
2022/10/11 06:02:31;;;;;;;11.30;6.60;;;;;;;;;;104780;1291;36283;-38
2022/10/11 06:05:03;;;;;;;13.00;6.50;;;;;;;;;;104791;1291;38412;-37
2022/10/11 06:07:39;;;;;;;11.30;6.20;;;;;;;;;;104789;1292;37826;-37
2022/10/11 06:10:12;;;;;;;10.50;6.80;;;;;;;;;;104866;1285;37745;-37
2022/10/11 06:12:44;;;;;;;12.50;7.00;;;;;;;;;;104873;1295;37787;-37
2022/10/11 06:15:18;;;;;;;11.90;7.10;;;;;;;;;;104854;1288;36275;-38
2022/10/11 06:17:51;;;;;;;11.00;7.00;;;;;;;;;;104763;1284;36112;-37
2022/10/11 06:20:23;;;;;;;11.70;7.80;;;;;;;;;;104775;1291;35132;-38
2022/10/11 06:22:55;;;;;;;11.30;6.50;;;;;;;;;;104756;1297;36023;-37
2022/10/11 06:25:27;;;;;;;10.10;7.00;;;;;;;;;;104744;1294;38202;-38
2022/10/11 06:27:59;;;;;;;12.10;7.20;;;;;;;;;;104772;1295;38037;-37
2022/10/11 06:30:30;;;;;;;11.60;7.40;;;;;;;;;;104800;1298;35266;-37
2022/10/11 06:33:02;;;;;;;11.20;7.10;;;;;;;;;;104824;1292;35223;-37
2022/10/11 06:35:34;;;;;;;10.40;6.90;;;;;;;;;;104790;1288;37732;-37
2022/10/11 06:38:06;;;;;;;10.90;7.00;;;;;;;;;;104734;1292;36161;-37
2022/10/11 06:40:38;;;;;;;13.40;7.10;;;;;;;;;;104770;1293;36140;-37
2022/10/11 06:43:09;;;;;;;12.80;7.20;;;;;;;;;;104789;1297;37902;-37
2022/10/11 06:45:43;;;;;;;12.30;7.00;;;;;;;;;;104785;1286;36258;-37
2022/10/11 06:48:14;;;;;;;9.80;6.70;;;;;;;;;;104776;1291;36103;-37
2022/10/11 06:50:46;;;;;;;11.90;7.20;;;;;;;;;;104840;1298;37720;-36
2022/10/11 06:53:18;;;;;;;9.50;6.80;;;;;;;;;;104802;1291;35454;-36
2022/10/11 06:55:50;;;;;;;9.90;6.90;;;;;;;;;;104794;1291;38682;-37
2022/10/11 06:58:21;;;;;;;8.70;6.50;;;;;;;;;;104746;1294;37758;-38
2022/10/11 07:00:53;;;;;;;10.10;6.70;;;;;;;;;;104772;1294;38127;-37
2022/10/11 07:03:25;;;;;;;10.60;7.20;;;;;;;;;;104765;1285;35368;-37
2022/10/11 07:06:01;;;;;;;10.20;6.60;;;;;;;;;;104788;1295;36132;-37
2022/10/11 07:08:33;;;;;;;9.00;6.80;;;;;;;;;;104791;1291;35141;-37
2022/10/11 07:11:06;;;;;;;10.00;6.50;;;;;;;;;;104608;1288;324974;-37
2022/10/11 07:13:39;;;;;;;9.80;6.70;;;;;;;;;;104851;1291;37910;-38
2022/10/11 07:16:13;;;;;;;9.00;6.60;;;;;;;;;;104816;1293;36413;-37
2022/10/11 07:18:45;;;;;;;10.70;6.70;;;;;;;;;;104754;1292;37723;-38
2022/10/11 07:21:17;;;;;;;9.30;6.20;;;;;;;;;;104810;1292;37745;-37
2022/10/11 07:23:49;;;;;;;8.90;6.70;;;;;;;;;;104799;1292;38107;-37
2022/10/11 07:26:23;;;;;;;9.00;5.80;;;;;;;;;;104791;1291;37784;-36
2022/10/11 07:28:55;;;;;;;9.70;6.10;;;;;;;;;;104761;1292;35618;-38
2022/10/11 07:31:28;;;;;;;9.20;6.50;;;;;;;;;;104821;1291;36298;-37
2022/10/11 07:34:00;;;;;;;9.30;6.40;;;;;;;;;;104818;1285;35455;-38
2022/10/11 07:36:32;;;;;;;9.10;6.00;;;;;;;;;;104813;1291;36052;-37
2022/10/11 07:39:07;;;;;;;8.90;6.20;;;;;;;;;;104726;1285;35631;-37
2022/10/11 07:41:39;;;;;;;8.90;6.50;;;;;;;;;;104784;1294;37919;-37
2022/10/11 07:44:11;;;;;;;8.20;6.40;;;;;;;;;;104780;1285;37787;-37
2022/10/11 07:46:43;;;;;;;9.50;6.40;;;;;;;;;;104781;1292;37499;-37
2022/10/11 07:49:15;;;;;;;7.60;5.60;;;;;;;;;;104768;1278;36251;-37
2022/10/11 07:51:46;;;;;;;8.20;6.10;;;;;;;;;;104788;1292;35422;-37
2022/10/11 07:54:18;;;;;;;8.50;6.30;;;;;;;;;;104807;1292;37745;-37
2022/10/11 07:56:50;;;;;;;8.60;6.30;;;;;;;;;;104796;1291;36393;-38
2022/10/11 07:59:21;;;;;;;8.00;5.90;;;;;;;;;;104749;1285;34980;-37
2022/10/11 08:01:53;;;;;;;8.60;6.10;;;;;;;;;;104768;1291;36177;-37
2022/10/11 08:04:25;;;;;;;8.00;6.20;;;;;;;;;;104766;1294;35989;-37
2022/10/11 08:06:57;;;;;;;8.30;6.10;;;;;;;;;;104788;1291;37795;-37
2022/10/11 08:09:29;;;;;;;9.20;6.20;;;;;;;;;;104749;1292;37960;-37
2022/10/11 08:12:01;;;;;;;8.30;6.10;;;;;;;;;;104813;1291;34942;-38
2022/10/11 08:14:33;;;;;;;8.60;6.00;;;;;;;;;;104825;1292;37786;-37
2022/10/11 08:17:05;;;;;;;9.80;5.90;;;;;;;;;;104789;1292;37857;-37
2022/10/11 08:19:37;;;;;;;7.90;6.20;;;;;;;;;;104735;1291;36234;-37
2022/10/11 08:22:09;;;;;;;8.40;6.00;;;;;;;;;;104783;1291;38118;-37
2022/10/11 08:24:41;;;;;;;7.60;5.90;;;;;;;;;;104752;1292;38445;-37
2022/10/11 08:27:15;;;;;;;8.00;5.90;;;;;;;;;;104762;1291;36228;-38
2022/10/11 08:29:47;;;;;;;8.40;6.30;;;;;;;;;;104764;1291;36480;-37
2022/10/11 08:32:19;;;;;;;8.40;6.20;;;;;;;;;;104788;1285;36132;-38
2022/10/11 08:34:52;;;;;;;8.20;5.90;;;;;;;;;;104801;1291;36151;-37
2022/10/11 08:37:23;;;;;;;9.40;5.70;;;;;;;;;;104776;1291;37332;-37
2022/10/11 08:39:55;;;;;;;7.50;6.00;;;;;;;;;;104747;1291;37682;-37
2022/10/11 08:42:35;;;;;;;8.00;5.80;;;;;;;;;;104762;1292;36090;-36
2022/10/11 08:45:24;;;;;;;8.40;6.30;;;;;;;;;;104841;1292;35292;-37
2022/10/11 08:48:11;;;;;;;8.60;6.00;;;;;;;;;;104818;1291;36055;-36
2022/10/11 08:50:44;;;;;;;7.80;5.50;;;;;;;;;;104829;1285;34916;-37
2022/10/11 08:53:26;;;;;;;7.30;5.50;;;;;;;;;;104863;1291;38283;-37
2022/10/11 08:55:58;;;;;;;8.10;5.70;;;;;;;;;;104815;1290;37790;-36
2022/10/11 08:58:41;;;;;;;7.20;5.80;;;;;;;;;;104820;1285;36446;-37
2022/10/11 09:01:20;;;;;;;7.90;5.60;;;;;;;;;;104731;1291;36557;-37
2022/10/11 09:03:53;;;;;;;7.70;5.80;;;;;;;;;;104791;1292;36288;-37
2022/10/11 09:06:35;;;;;;;;;;;;;;;;;;104818;1292;37778;-37
2022/10/11 09:09:25;;;;;;;8.70;6.00;;;;;;;;;;104758;1292;35773;-37
2022/10/11 09:12:13;;;;;;;6.60;5.30;;;;;;;;;;104796;1285;37842;-35
2022/10/11 09:15:13;;;;;;;8.70;5.70;;;;;;;;;;104769;1289;35394;-37
2022/10/11 09:18:15;;;;;;;8.30;5.70;;;;;;;;;;104614;1294;37753;-37
2022/10/11 09:21:05;;;;;;;7.20;5.50;;;;;;;;;;104750;1291;36257;-37
2022/10/11 09:24:04;;;;;;;8.00;5.60;;;;;;;;;;104781;1292;37873;-37
2022/10/11 09:26:49;;;;;;;7.70;5.20;;;;;;;;;;104763;1294;36120;-37
2022/10/11 09:29:32;;;;;;;7.60;5.60;;;;;;;;;;104806;1285;36166;-38
2022/10/11 09:32:14;;;;;;;7.20;5.40;;;;;;;;;;104735;1294;37251;-37
2022/10/11 09:34:47;;;;;;;7.00;5.50;;;;;;;;;;104809;1294;36230;-37
2022/10/11 09:37:31;;;;;;;7.00;5.20;;;;;;;;;;104768;1295;36843;-37
2022/10/11 09:40:19;;;;;;;7.30;5.00;;;;;;;;;;104776;1293;36537;-36
2022/10/11 09:42:50;;;;;;;7.80;5.50;;;;;;;;;;104750;1291;40218;-37
2022/10/11 09:45:24;;;;;;;6.90;5.10;;;;;;;;;;104769;1296;35327;-36
2022/10/11 09:48:00;;;;;;;7.10;4.60;;;;;;;;;;104778;1292;35866;-38
2022/10/11 09:50:35;;;;;;;6.80;4.70;;;;;;;;;;104734;1294;36072;-37
2022/10/11 09:53:07;;;;;;;7.10;5.10;;;;;;;;;;104769;1295;41721;-37
2022/10/11 09:55:45;;;;;;;6.90;4.80;;;;;;;;;;104764;1291;37694;-38
2022/10/11 09:58:37;;;;;;;6.80;4.90;;;;;;;;;;104785;1292;37708;-37
2022/10/11 10:01:12;;;;;;;7.40;4.80;;;;;;;;;;104701;1285;37803;-38
2022/10/11 10:03:46;;;;;;;6.20;4.70;;;;;;;;;;104794;1294;37339;-35
2022/10/11 10:06:24;;;;;;;6.80;4.80;;;;;;;;;;104763;1294;37700;-35
2022/10/11 10:08:56;;;;;;;6.60;4.80;;;;;;;;;;104843;1292;37741;-38
2022/10/11 10:11:37;;;;;;;6.90;4.70;;;;;;;;;;104730;1295;36193;-37
2022/10/11 10:14:21;;;;;;;6.60;4.50;;;;;;;;;;104784;1291;38318;-36
2022/10/11 10:17:03;;;;;;;6.10;4.30;;;;;;;;;;104798;1299;36024;-36
2022/10/11 10:19:50;;;;;;;6.60;4.50;;;;;;;;;;104797;1291;38202;-37
2022/10/11 10:22:25;;;;;;;6.40;4.60;;;;;;;;;;104754;1297;35328;-36
2022/10/11 10:25:00;;;;;;;6.30;4.50;;;;;;;;;;104760;1295;36977;-36
2022/10/11 10:27:32;;;;;;;5.90;4.30;;;;;;;;;;104785;1295;35994;-36
2022/10/11 10:30:18;;;;;;;6.50;4.00;;;;;;;;;;104771;1294;36243;-36
2022/10/11 10:32:55;;;;;;;5.90;4.10;;;;;;;;;;104771;1297;37867;-36
2022/10/11 10:35:43;;;;;;;6.20;4.00;;;;;;;;;;104767;1292;36150;-36
2022/10/11 10:38:21;;;;;;;6.80;4.20;;;;;;;;;;104768;1294;37812;-36
2022/10/11 10:40:57;;;;;;;6.40;4.50;;;;;;;;;;104783;1294;36195;-35
2022/10/11 10:43:32;;;;;;;6.70;4.40;;;;;;;;;;104748;1292;36106;-36
2022/10/11 10:46:40;;;;;;;6.10;3.80;;;;;;;;;;104760;1294;36183;-37
2022/10/11 10:49:21;;;;;;;5.80;4.10;;;;;;;;;;104777;1291;37733;-36
2022/10/11 10:52:06;;;;;;;5.40;3.70;;;;;;;;;;104752;1291;36084;-38
2022/10/11 10:54:48;;;;;;;5.90;3.90;;;;;;;;;;104769;1295;38566;-37
2022/10/11 10:57:25;;;;;;;4.90;3.40;;;;;;;;;;104782;1292;37860;-37
2022/10/11 11:00:18;;;;;;;5.70;3.60;;;;;;;;;;104785;1292;36110;-37
2022/10/11 11:02:58;;;;;;;5.90;3.90;;;;;;;;;;104781;1295;36093;-37
2022/10/11 11:05:43;;;;;;;5.70;3.70;;;;;;;;;;104769;1291;39053;-37
2022/10/11 11:08:28;;;;;;;7.20;3.60;;;;;;;;;;104831;1287;37909;-37
2022/10/11 11:11:10;;;;;;;5.50;3.50;;;;;;;;;;104788;1291;37915;-36
2022/10/11 11:13:52;;;;;;;5.20;3.30;;;;;;;;;;104722;1278;40284;-35
2022/10/11 11:16:37;;;;;;;5.60;3.10;;;;;;;;;;104780;1284;37765;-34
2022/10/11 11:19:21;;;;;;;6.30;3.30;;;;;;;;;;104732;1279;36346;-35
2022/10/11 11:22:01;;;;;;;5.70;3.30;;;;;;;;;;104733;1284;37835;-36
2022/10/11 11:24:48;;;;;;;5.20;3.10;;;;;;;;;;104776;1291;34928;-32
2022/10/11 11:27:50;;;;;;;5.00;2.90;;;;;;;;;;104768;1292;38468;-36
2022/10/11 11:30:27;;;;;;;5.60;3.00;;;;;;;;;;104767;1285;37742;-36
2022/10/11 11:33:09;;;;;;;4.80;2.80;;;;;;;;;;104709;1285;36164;-37
2022/10/11 11:35:44;;;;;;;4.30;2.60;;;;;;;;;;104713;1284;36047;-37
2022/10/11 11:38:22;;;;;;;4.80;3.00;;;;;;;;;;104800;1288;37604;-35
2022/10/11 11:41:00;;;;;;;4.90;2.80;;;;;;;;;;104716;1294;37873;-36
2022/10/11 11:43:36;;;;;;;5.80;3.00;;;;;;;;;;104677;1294;38312;-33
2022/10/11 11:46:16;;;;;;;5.00;2.60;;;;;;;;;;104747;1285;36970;-34
2022/10/11 11:48:50;;;;;;;4.70;2.50;;;;;;;;;;104779;1292;35384;-35
2022/10/11 11:51:27;;;;;;;4.60;2.70;;;;;;;;;;104798;1286;38215;-33
2022/10/11 11:54:11;;;;;;;4.30;2.40;;;;;;;;;;104726;1284;36131;-36
2022/10/11 11:56:57;;;;;;;5.00;2.30;;;;;;;;;;104735;1294;35129;-36
2022/10/11 11:59:37;;;;;;;4.40;2.30;;;;;;;;;;104733;1292;35466;-35
2022/10/11 12:02:35;;;;;;;4.20;2.30;;;;;;;;;;104761;1298;38191;-35
2022/10/11 12:05:09;;;;;;;4.40;2.20;;;;;;;;;;104753;1295;35117;-36
2022/10/11 12:07:55;;;;;;;4.30;1.90;;;;;;;;;;104827;1295;37934;-35
2022/10/11 12:10:40;;;;;;;4.40;2.30;;;;;;;;;;104859;1291;37813;-37
2022/10/11 12:13:21;;;;;;;5.10;2.50;;;;;;;;;;104774;1291;36377;-36
2022/10/11 12:16:11;;;;;;;7.30;2.30;;;;;;;;;;104730;1285;36262;-37
2022/10/11 12:19:01;;;;;;;5.80;2.10;;;;;;;;;;104790;1299;34932;-37
2022/10/11 12:21:49;;;;;;;6.60;2.60;;;;;;;;;;104697;1292;36495;-36
2022/10/11 12:24:25;;;;;;;6.80;2.20;;;;;;;;;;104654;1293;37887;-38
2022/10/11 12:27:00;;;;;;;4.50;2.00;;;;;;;;;;104783;1291;35285;-38
2022/10/11 12:29:49;;;;;;;4.20;2.00;;;;;;;;;;104799;1296;37277;-37
2022/10/11 12:32:52;;;;;;;6.70;2.10;;;;;;;;;;104755;1292;35503;-36
2022/10/11 12:36:02;;;;;;;4.70;2.10;;;;;;;;;;104716;1287;37809;-36
2022/10/11 12:38:38;;;;;;;4.90;2.00;;;;;;;;;;104727;1300;37930;-36
2022/10/11 12:41:53;;;;;;;5.40;2.30;;;;;;;;;;104771;1284;36074;-36
2022/10/11 12:44:28;;;;;;;5.40;2.10;;;;;;;;;;104748;1295;35316;-35
2022/10/11 12:47:38;;;;;;;5.60;2.40;;;;;;;;;;104745;1291;41474;-36
2022/10/11 12:50:21;;;;;;;4.80;2.10;;;;;;;;;;104417;1291;37765;-36
2022/10/11 12:53:04;;;;;;;4.30;1.90;;;;;;;;;;104787;1292;37719;-38
2022/10/11 12:55:56;;;;;;;4.80;2.00;;;;;;;;;;104730;1282;37726;-37
2022/10/11 12:58:40;;;;;;;4.40;2.10;;;;;;;;;;104754;1291;37417;-38
2022/10/11 13:01:22;;;;;;;3.90;1.70;;;;;;;;;;104760;1291;38181;-37
2022/10/11 13:04:05;;;;;;;4.10;1.80;;;;;;;;;;104728;1284;36074;-37
2022/10/11 13:06:46;;;;;;;4.40;1.80;;;;;;;;;;104739;1291;36018;-35
2022/10/11 13:09:28;;;;;;;4.60;2.20;;;;;;;;;;104803;1291;36354;-37
2022/10/11 13:12:06;;;;;;;4.10;1.70;;;;;;;;;;104757;1287;37876;-38
2022/10/11 13:14:44;;;;;;;3.90;1.80;;;;;;;;;;104751;1285;36388;-36
2022/10/11 13:17:23;;;;;;;5.10;2.00;;;;;;;;;;104687;1294;35320;-37
2022/10/11 13:20:05;;;;;;;4.70;2.00;;;;;;;;;;104740;1286;37714;-37
2022/10/11 13:22:40;;;;;;;4.40;1.90;;;;;;;;;;104725;1301;37976;-36
2022/10/11 13:25:20;;;;;;;4.50;1.60;;;;;;;;;;104757;1286;37740;-36
2022/10/11 13:27:55;;;;;;;5.00;1.80;;;;;;;;;;104694;1294;38458;-38
2022/10/11 13:30:31;;;;;;;4.60;1.50;;;;;;;;;;104718;1301;36751;-36
2022/10/11 13:33:08;;;;;;;3.90;1.70;;;;;;;;;;104777;1292;37939;-38
2022/10/11 13:35:40;;;;;;;4.50;1.70;;;;;;;;;;104776;1295;37781;-36
2022/10/11 13:38:23;;;;;;;3.90;1.70;;;;;;;;;;104765;1291;36672;-35
2022/10/11 13:40:56;;;;;;;3.90;1.90;;;;;;;;;;104764;1291;37099;-35
2022/10/11 13:43:30;;;;;;;3.80;1.60;;;;;;;;;;104832;1295;38340;-37
2022/10/11 13:46:03;;;;;;;4.70;1.70;;;;;;;;;;104822;1292;35052;-35
2022/10/11 13:48:41;;;;;;;3.90;1.60;;;;;;;;;;104697;1294;39132;-35
2022/10/11 13:51:26;;;;;;;4.20;1.80;;;;;;;;;;104788;1293;36212;-36
2022/10/11 13:54:05;;;;;;;3.80;1.60;;;;;;;;;;104765;1289;37920;-35
2022/10/11 13:56:44;;;;;;;4.10;1.40;;;;;;;;;;104771;1292;37804;-36
2022/10/11 13:59:23;;;;;;;4.10;1.80;;;;;;;;;;104831;1285;37795;-36
2022/10/11 14:02:00;;;;;;;4.10;1.80;;;;;;;;;;104806;1292;37986;-36
2022/10/11 14:04:42;;;;;;;3.30;1.50;;;;;;;;;;104769;1291;35294;-36
2022/10/11 14:07:27;;;;;;;4.60;1.70;;;;;;;;;;104752;1292;37825;-35
2022/10/11 14:10:00;;;;;;;4.00;1.50;;;;;;;;;;104778;1294;36850;-35
2022/10/11 14:12:38;;;;;;;4.60;2.10;;;;;;;;;;104778;1294;37609;-36
2022/10/11 14:15:27;;;;;;;4.40;1.60;;;;;;;;;;104789;1299;35482;-36
2022/10/11 14:18:01;;;;;;;4.50;2.00;;;;;;;;;;104809;1291;36043;-35
2022/10/11 14:20:41;;;;;;;3.70;1.60;;;;;;;;;;104841;1291;37688;-35
2022/10/11 14:23:13;;;;;;;4.00;1.90;;;;;;;;;;104879;1285;37777;-36
2022/10/11 14:25:45;;;;;;;4.00;1.70;;;;;;;;;;104855;1296;37725;-36
2022/10/11 14:28:17;;;;;;;4.00;1.80;;;;;;;;;;104827;1295;35036;-35
2022/10/11 14:30:49;;;;;;;5.70;2.00;;;;;;;;;;104844;1292;37829;-36
2022/10/11 14:33:21;;;;;;;3.80;1.50;;;;;;;;;;104855;1295;37965;-36
2022/10/11 14:35:53;;;;;;;4.90;1.80;;;;;;;;;;104852;1292;37608;-36
2022/10/11 14:38:25;;;;;;;3.50;1.50;;;;;;;;;;104760;1293;37793;-37
2022/10/11 14:40:57;;;;;;;3.50;1.40;;;;;;;;;;104846;1292;35543;-36
2022/10/11 14:43:28;;;;;;;3.90;1.70;;;;;;;;;;104784;1285;37733;-36
2022/10/11 14:46:01;;;;;;;4.30;1.80;;;;;;;;;;104824;1292;38260;-35
2022/10/11 14:48:33;;;;;;;3.70;1.80;;;;;;;;;;104754;1291;35451;-36
2022/10/11 14:51:07;;;;;;;4.00;1.60;;;;;;;;;;104807;1294;37803;-36
2022/10/11 14:53:45;;;;;;;3.60;1.50;;;;;;;;;;104791;1293;37883;-37
2022/10/11 14:56:19;;;;;;;3.60;1.80;;;;;;;;;;104780;1292;36221;-37
2022/10/11 14:58:51;;;;;;;4.80;2.10;;;;;;;;;;104769;1283;35039;-37
2022/10/11 15:01:25;;;;;;;4.50;1.60;;;;;;;;;;104836;1292;36167;-37
2022/10/11 15:03:56;;;;;;;3.70;1.60;;;;;;;;;;104815;1291;37689;-36
2022/10/11 15:06:35;;;;;;;4.20;1.80;;;;;;;;;;104824;1291;37845;-37
2022/10/11 15:09:09;;;;;;;3.90;1.80;;;;;;;;;;104763;1298;36156;-37
2022/10/11 15:11:41;;;;;;;4.40;1.80;;;;;;;;;;102748;1284;2804272;-37
2022/10/11 15:14:12;;;;;;;4.60;1.70;;;;;;;;;;104804;1281;37916;-37
2022/10/11 15:16:45;;;;;;;3.30;1.50;;;;;;;;;;104788;1293;36054;-37
2022/10/11 15:19:19;;;;;;;4.10;1.50;;;;;;;;;;104793;1291;35524;-36
2022/10/11 15:21:52;;;;;;;4.20;1.80;;;;;;;;;;104795;1292;38285;-37
2022/10/11 15:24:24;;;;;;;4.50;1.90;;;;;;;;;;104851;1295;37662;-37
2022/10/11 15:26:56;;;;;;;3.70;1.60;;;;;;;;;;104839;1291;36154;-38